Wetterdaten: Woche 01.02.21 - 07.02.21 (KW5)
Datum Zeit Temp. Aussen Temp. o. S. Temp +5cm Feuchte Auss Luftdruck Regen Sonnenschein Regendauer Solar Windben Empfang
01.02.2021 00:00 1,8 C 1,1 C -1,1 C 94 % 993,6 hPa 0,2 l/m 0,00 h 0,87 h 0 W/m 0,1 km/h (0 Bft) 96,70 %
01.02.2021 01:00 1,9 C 1,1 C -0,9 C 95 % 993,0 hPa 0,2 l/m 0,00 h 0,77 h 0 W/m 1,2 km/h (1 Bft) 97,86 %
01.02.2021 02:00 2,0 C 1,1 C -0,5 C 95 % 992,4 hPa 0,0 l/m 0,00 h 0,10 h 0 W/m 0,6 km/h (0 Bft) 95,44 %
01.02.2021 03:00 2,2 C 1,4 C -0,3 C 96 % 991,7 hPa 0,0 l/m 0,00 h 0,07 h 0 W/m 0,4 km/h (0 Bft) 96,11 %
01.02.2021 04:00 2,4 C 1,7 C 0,0 C 95 % 991,2 hPa 0,0 l/m 0,00 h 0,00 h 0 W/m 1,1 km/h (0 Bft) 99,07 %
01.02.2021 05:00 2,5 C 2,0 C 0,4 C 95 % 991,1 hPa 0,0 l/m 0,00 h 0,00 h 0 W/m 0,5 km/h (0 Bft) 96,71 %
01.02.2021 06:00 2,6 C 2,1 C 0,4 C 96 % 991,0 hPa 0,0 l/m 0,00 h 0,00 h 0 W/m 1,1 km/h (1 Bft) 97,68 %
01.02.2021 07:00 2,7 C 2,2 C 0,6 C 96 % 991,1 hPa 0,0 l/m 0,00 h 0,00 h 0 W/m 0,3 km/h (0 Bft) 96,77 %
01.02.2021 08:00 2,9 C 2,5 C 0,9 C 97 % 991,6 hPa 0,0 l/m 0,00 h 0,00 h 10 W/m 0,2 km/h (0 Bft) 97,08 %
01.02.2021 09:00 3,1 C 2,9 C 1,4 C 96 % 992,1 hPa 0,0 l/m 0,00 h 0,00 h 26 W/m 0,1 km/h (0 Bft) 94,45 %
01.02.2021 10:00 3,7 C 3,8 C 2,5 C 96 % 992,5 hPa 0,0 l/m 0,00 h 0,00 h 88 W/m 0,2 km/h (0 Bft) 98,36 %
01.02.2021 11:00 4,1 C 4,0 C 2,6 C 95 % 993,0 hPa 0,0 l/m 0,00 h 0,00 h 73 W/m 0,3 km/h (0 Bft) 98,79 %
01.02.2021 12:00 4,6 C 4,6 C 3,4 C 95 % 993,5 hPa 0,0 l/m 0,00 h 0,00 h 90 W/m 0,3 km/h (0 Bft) 97,57 %
01.02.2021 13:00 5,0 C 4,9 C 3,4 C 95 % 994,0 hPa 0,0 l/m 0,00 h 0,00 h 85 W/m 0,2 km/h (0 Bft) 96,63 %
01.02.2021 14:00 5,3 C 4,6 C 3,2 C 95 % 994,5 hPa 0,0 l/m 0,00 h 0,00 h 53 W/m 0,0 km/h (0 Bft) 97,11 %
01.02.2021 15:00 5,1 C 4,4 C 2,8 C 96 % 995,2 hPa 0,0 l/m 0,00 h 0,00 h 29 W/m 0,2 km/h (0 Bft) 96,88 %
01.02.2021 16:00 4,8 C 4,0 C 2,8 C 97 % 996,3 hPa 0,2 l/m 0,00 h 0,07 h 8 W/m 0,4 km/h (0 Bft) 98,65 %
01.02.2021 17:00 4,3 C 3,3 C 2,3 C 97 % 997,4 hPa 0,0 l/m 0,00 h 0,00 h 4 W/m 0,7 km/h (0 Bft) 97,63 %
01.02.2021 18:00 3,7 C 2,9 C 2,3 C 98 % 998,6 hPa 0,0 l/m 0,00 h 0,00 h 0 W/m 1,0 km/h (0 Bft) 98,07 %
01.02.2021 19:00 3,4 C 2,7 C 2,1 C 98 % 999,6 hPa 0,0 l/m 0,00 h 0,07 h 0 W/m 2,0 km/h (1 Bft) 96,56 %
01.02.2021 20:00 3,0 C 2,2 C 1,7 C 99 % 1000,3 hPa 0,0 l/m 0,00 h 0,07 h 0 W/m 0,7 km/h (0 Bft) 93,32 %
01.02.2021 21:00 2,9 C 2,2 C 1,7 C 99 % 1001,2 hPa 0,2 l/m 0,00 h 0,00 h 0 W/m 1,1 km/h (0 Bft) 95,87 %
01.02.2021 22:00 2,6 C 2,2 C 1,7 C 99 % 1002,1 hPa 0,0 l/m 0,00 h 0,00 h 0 W/m 2,0 km/h (1 Bft) 98,50 %
01.02.2021 23:00 2,5 C 2,2 C 1,7 C 99 % 1002,2 hPa 0,0 l/m 0,00 h 0,00 h 0 W/m 0,3 km/h (0 Bft) 96,80 %
02.02.2021 00:00 2,7 C 2,2 C 1,8 C 99 % 1003,0 hPa 0,0 l/m 0,00 h 0,00 h 0 W/m 0,0 km/h (0 Bft) 98,16 %
02.02.2021 01:00 2,9 C 2,7 C 2,3 C 99 % 1003,6 hPa 0,0 l/m 0,00 h 0,00 h 0 W/m 0,1 km/h (0 Bft) 97,82 %
02.02.2021 02:00 3,0 C 2,8 C 2,3 C 99 % 1003,7 hPa 0,0 l/m 0,00 h 0,00 h 0 W/m 0,0 km/h (0 Bft) 96,59 %
02.02.2021 03:00 3,1 C 2,8 C 2,3 C 99 % 1003,7 hPa 0,0 l/m 0,00 h 0,00 h 0 W/m 0,0 km/h (0 Bft) 98,93 %
02.02.2021 04:00 3,3 C 2,8 C 2,3 C 99 % 1003,4 hPa 0,0 l/m 0,00 h 0,00 h 0 W/m 0,0 km/h (0 Bft) 98,66 %
02.02.2021 05:00 3,3 C 3,1 C 2,6 C 99 % 1003,0 hPa 0,0 l/m 0,00 h 0,00 h 0 W/m 0,0 km/h (0 Bft) 95,78 %
02.02.2021 06:00 3,5 C 3,3 C 2,8 C 99 % 1002,3 hPa 0,0 l/m 0,00 h 0,00 h 0 W/m 0,1 km/h (0 Bft) 97,65 %
02.02.2021 07:00 3,6 C 3,3 C 2,8 C 99 % 1002,0 hPa 0,0 l/m 0,00 h 0,00 h 0 W/m 0,0 km/h (0 Bft) 94,10 %
02.02.2021 08:00 3,7 C 2,9 C 2,8 C 99 % 1001,2 hPa 0,8 l/m 0,00 h 0,93 h 4 W/m 0,0 km/h (0 Bft) 97,09 %
02.02.2021 09:00 3,9 C 3,2 C 2,8 C 98 % 1000,3 hPa 1,4 l/m 0,00 h 1,00 h 14 W/m 0,2 km/h (0 Bft) 98,16 %
02.02.2021 10:00 4,1 C 3,5 C 3,2 C 99 % 999,3 hPa 1,0 l/m 0,00 h 0,47 h 36 W/m 0,2 km/h (0 Bft) 94,92 %
02.02.2021 11:00 4,7 C 4,2 C 3,9 C 99 % 998,6 hPa 0,2 l/m 0,00 h 0,03 h 49 W/m 0,6 km/h (0 Bft) 98,79 %
02.02.2021 12:00 5,4 C 4,9 C 4,7 C 100 % 998,0 hPa 0,8 l/m 0,00 h 0,63 h 56 W/m 1,2 km/h (1 Bft) 99,56 %
02.02.2021 13:00 6,1 C 5,8 C 5,5 C 100 % 997,7 hPa 0,0 l/m 0,00 h 0,00 h 61 W/m 0,6 km/h (0 Bft) 95,58 %
02.02.2021 14:00 7,8 C 7,6 C 7,2 C 100 % 997,4 hPa 0,2 l/m 0,00 h 0,03 h 51 W/m 0,6 km/h (0 Bft) 97,65 %
02.02.2021 15:00 9,5 C 9,2 C 8,5 C 100 % 997,6 hPa 0,0 l/m 0,00 h 0,00 h 32 W/m 3,3 km/h (1 Bft) 94,85 %
02.02.2021 16:00 10,0 C 9,4 C 8,9 C 100 % 998,0 hPa 0,0 l/m 0,00 h 0,07 h 22 W/m 1,4 km/h (1 Bft) 94,59 %
02.02.2021 17:00 10,0 C 8,9 C 8,5 C 100 % 998,7 hPa 1,4 l/m 0,00 h 0,43 h 0 W/m 1,3 km/h (1 Bft) 98,29 %
02.02.2021 18:00 9,6 C 8,7 C 8,4 C 99 % 999,4 hPa 0,0 l/m 0,00 h 0,00 h 0 W/m 0,1 km/h (0 Bft) 97,24 %
02.02.2021 19:00 9,5 C 8,4 C 8,1 C 99 % 999,6 hPa 0,2 l/m 0,00 h 0,00 h 0 W/m 0,0 km/h (0 Bft) 98,00 %
02.02.2021 20:00 9,4 C 8,3 C 7,8 C 99 % 999,7 hPa 0,0 l/m 0,00 h 0,13 h 0 W/m 0,2 km/h (0 Bft) 97,95 %
02.02.2021 21:00 9,4 C 8,3 C 7,8 C 98 % 1000,0 hPa 1,2 l/m 0,00 h 0,53 h 0 W/m 0,1 km/h (0 Bft) 96,94 %
02.02.2021 22:00 9,2 C 8,1 C 7,7 C 98 % 1000,0 hPa 0,2 l/m 0,00 h 0,07 h 0 W/m 0,0 km/h (0 Bft) 97,22 %
02.02.2021 23:00 8,6 C 7,8 C 7,3 C 99 % 1000,1 hPa 0,2 l/m 0,00 h 0,20 h 0 W/m 0,2 km/h (0 Bft) 99,72 %
03.02.2021 00:00 8,7 C 7,6 C 7,6 C 99 % 1000,5 hPa 4,2 l/m 0,00 h 0,87 h 0 W/m 0,2 km/h (0 Bft) 95,82 %
03.02.2021 01:00 8,8 C 7,9 C 7,7 C 99 % 1000,2 hPa 1,6 l/m 0,00 h 0,30 h 0 W/m 1,0 km/h (0 Bft) 99,79 %
03.02.2021 02:00 8,9 C 8,0 C 7,6 C 99 % 1000,0 hPa 0,0 l/m 0,00 h 0,00 h 0 W/m 0,3 km/h (0 Bft) 99,29 %
03.02.2021 03:00 8,9 C 8,3 C 7,8 C 99 % 999,7 hPa 0,0 l/m 0,00 h 0,00 h 0 W/m 0,2 km/h (0 Bft) 94,81 %
03.02.2021 04:00 8,9 C 8,6 C 7,6 C 98 % 999,4 hPa 0,0 l/m 0,00 h 0,00 h 0 W/m 0,1 km/h (0 Bft) 95,84 %
03.02.2021 05:00 8,8 C 8,6 C 7,6 C 97 % 999,4 hPa 0,0 l/m 0,00 h 0,00 h 0 W/m 0,2 km/h (0 Bft) 96,08 %
03.02.2021 06:00 9,1 C 8,9 C 7,8 C 96 % 999,0 hPa 0,0 l/m 0,00 h 0,00 h 0 W/m 0,0 km/h (0 Bft) 95,31 %
03.02.2021 07:00 9,2 C 8,5 C 7,6 C 94 % 998,5 hPa 0,0 l/m 0,00 h 0,00 h 0 W/m 0,2 km/h (0 Bft) 97,40 %
03.02.2021 08:00 9,0 C 8,3 C 7,7 C 94 % 998,3 hPa 0,2 l/m 0,00 h 0,23 h 5 W/m 0,4 km/h (0 Bft) 96,50 %
03.02.2021 09:00 8,9 C 7,3 C 7,4 C 95 % 997,7 hPa 2,2 l/m 0,00 h 1,00 h 8 W/m 0,2 km/h (0 Bft) 98,50 %
03.02.2021 10:00 8,3 C 7,2 C 7,4 C 96 % 996,8 hPa 0,8 l/m 0,00 h 0,90 h 46 W/m 0,1 km/h (0 Bft) 99,29 %
03.02.2021 11:00 8,4 C 7,6 C 7,8 C 97 % 995,5 hPa 1,2 l/m 0,00 h 0,93 h 43 W/m 0,0 km/h (0 Bft) 97,08 %
03.02.2021 12:00 8,5 C 7,7 C 7,8 C 98 % 994,0 hPa 0,8 l/m 0,00 h 0,70 h 33 W/m 0,1 km/h (0 Bft) 99,01 %
03.02.2021 13:00 8,8 C 8,2 C 8,1 C 99 % 993,6 hPa 0,2 l/m 0,00 h 0,00 h 46 W/m 0,0 km/h (0 Bft) 98,50 %
03.02.2021 14:00 9,7 C 9,4 C 9,1 C 99 % 993,8 hPa 0,0 l/m 0,00 h 0,00 h 68 W/m 1,0 km/h (0 Bft) 96,50 %
03.02.2021 15:00 10,5 C 10,9 C 9,6 C 97 % 993,9 hPa 0,0 l/m 0,07 h 0,00 h 61 W/m 5,6 km/h (1 Bft) 99,51 %
03.02.2021 16:00 11,7 C 11,6 C 10,1 C 88 % 994,2 hPa 0,0 l/m 0,40 h 0,00 h 64 W/m 2,0 km/h (1 Bft) 96,65 %
03.02.2021 17:00 10,9 C 9,8 C 8,6 C 87 % 995,0 hPa 0,0 l/m 0,00 h 0,00 h 13 W/m 2,5 km/h (1 Bft) 95,02 %
03.02.2021 18:00 9,5 C 8,0 C 6,9 C 92 % 995,7 hPa 0,4 l/m 0,00 h 0,67 h 0 W/m 0,2 km/h (0 Bft) 97,94 %
03.02.2021 19:00 8,8 C 7,3 C 6,4 C 95 % 996,7 hPa 2,2 l/m 0,00 h 0,80 h 0 W/m 0,0 km/h (0 Bft) 96,94 %
03.02.2021 20:00 8,4 C 7,2 C 6,3 C 97 % 997,7 hPa 1,4 l/m 0,00 h 0,63 h 0 W/m 0,0 km/h (0 Bft) 98,15 %
03.02.2021 21:00 7,7 C 6,5 C 6,0 C 97 % 999,8 hPa 0,8 l/m 0,00 h 0,57 h 0 W/m 4,0 km/h (1 Bft) 99,07 %
03.02.2021 22:00 7,3 C 6,5 C 6,1 C 98 % 1002,0 hPa 0,2 l/m 0,00 h 0,73 h 0 W/m 0,6 km/h (0 Bft) 97,37 %
03.02.2021 23:00 7,5 C 6,7 C 6,2 C 99 % 1003,8 hPa 1,0 l/m 0,00 h 1,00 h 0 W/m 3,1 km/h (1 Bft) 98,36 %
04.02.2021 00:00 7,4 C 6,7 C 6,2 C 99 % 1005,2 hPa 0,2 l/m 0,00 h 1,00 h 0 W/m 2,1 km/h (1 Bft) 98,38 %
04.02.2021 01:00 7,5 C 6,7 C 6,3 C 99 % 1006,3 hPa 0,2 l/m 0,00 h 0,27 h 0 W/m 2,9 km/h (1 Bft) 97,97 %
04.02.2021 02:00 7,4 C 6,7 C 6,4 C 99 % 1007,5 hPa 0,0 l/m 0,00 h 0,17 h 0 W/m 1,3 km/h (1 Bft) 98,44 %
04.02.2021 03:00 7,4 C 6,7 C 6,3 C 98 % 1008,5 hPa 0,0 l/m 0,00 h 0,17 h 0 W/m 1,0 km/h (0 Bft) 96,08 %
04.02.2021 04:00 7,2 C 6,3 C 6,2 C 97 % 1009,4 hPa 0,0 l/m 0,00 h 0,00 h 0 W/m 0,9 km/h (0 Bft) 96,34 %
04.02.2021 05:00 6,8 C 5,9 C 5,3 C 94 % 1010,5 hPa 0,0 l/m 0,00 h 0,00 h 0 W/m 0,7 km/h (0 Bft) 95,59 %
04.02.2021 06:00 6,2 C 5,6 C 4,6 C 95 % 1011,2 hPa 0,0 l/m 0,00 h 0,00 h 0 W/m 0,8 km/h (0 Bft) 96,39 %
04.02.2021 07:00 5,9 C 5,3 C 4,5 C 95 % 1011,9 hPa 0,0 l/m 0,00 h 0,00 h 0 W/m 0,1 km/h (0 Bft) 96,51 %
04.02.2021 08:00 5,6 C 5,1 C 4,3 C 95 % 1013,0 hPa 0,0 l/m 0,00 h 0,00 h 15 W/m 0,1 km/h (0 Bft) 96,59 %
04.02.2021 09:00 5,9 C 5,9 C 5,3 C 96 % 1013,7 hPa 0,0 l/m 0,00 h 0,00 h 40 W/m 0,3 km/h (0 Bft) 99,29 %
04.02.2021 10:00 6,5 C 6,5 C 6,1 C 96 % 1014,3 hPa 0,0 l/m 0,00 h 0,00 h 60 W/m 0,5 km/h (0 Bft) 98,13 %
04.02.2021 11:00 7,6 C 9,1 C 7,4 C 94 % 1014,7 hPa 0,0 l/m 0,40 h 0,00 h 212 W/m 1,5 km/h (1 Bft) 97,58 %
04.02.2021 12:00 9,7 C 11,7 C 12,0 C 87 % 1014,7 hPa 0,0 l/m 0,67 h 0,00 h 325 W/m 0,3 km/h (0 Bft) 95,25 %
04.02.2021 13:00 10,1 C 11,7 C 11,3 C 82 % 1014,6 hPa 0,0 l/m 0,70 h 0,00 h 269 W/m 1,5 km/h (1 Bft) 96,12 %
04.02.2021 14:00 10,0 C 10,9 C 9,2 C 81 % 1014,4 hPa 0,0 l/m 0,33 h 0,00 h 165 W/m 0,3 km/h (0 Bft) 99,57 %
04.02.2021 15:00 10,6 C 10,7 C 8,6 C 77 % 1014,2 hPa 0,0 l/m 0,27 h 0,00 h 109 W/m 0,2 km/h (0 Bft) 96,37 %
04.02.2021 16:00 10,0 C 9,0 C 6,7 C 80 % 1014,1 hPa 0,0 l/m 0,00 h 0,00 h 30 W/m 0,0 km/h (0 Bft) 97,30 %
04.02.2021 17:00 9,2 C 7,5 C 5,1 C 82 % 1013,9 hPa 0,0 l/m 0,00 h 0,00 h 8 W/m 0,0 km/h (0 Bft) 98,86 %
04.02.2021 18:00 8,0 C 6,3 C 4,1 C 85 % 1013,8 hPa 0,0 l/m 0,00 h 0,00 h 0 W/m 0,0 km/h (0 Bft) 96,90 %
04.02.2021 19:00 7,0 C 5,9 C 3,9 C 87 % 1013,8 hPa 0,0 l/m 0,00 h 0,00 h 0 W/m 0,0 km/h (0 Bft) 97,60 %
04.02.2021 20:00 6,7 C 6,2 C 4,1 C 90 % 1013,7 hPa 0,0 l/m 0,00 h 0,00 h 0 W/m 0,0 km/h (0 Bft) 97,49 %
04.02.2021 21:00 7,1 C 5,6 C 3,9 C 90 % 1013,3 hPa 0,4 l/m 0,00 h 0,50 h 0 W/m 0,1 km/h (0 Bft) 95,75 %
04.02.2021 22:00 6,6 C 5,4 C 3,6 C 92 % 1013,2 hPa 0,0 l/m 0,00 h 0,00 h 0 W/m 0,0 km/h (0 Bft) 97,58 %
04.02.2021 23:00 6,3 C 4,8 C 3,4 C 92 % 1013,1 hPa 0,0 l/m 0,00 h 0,00 h 0 W/m 0,0 km/h (0 Bft) 94,21 %
05.02.2021 00:00 5,9 C 5,0 C 3,4 C 93 % 1012,6 hPa 0,0 l/m 0,00 h 0,00 h 0 W/m 0,0 km/h (0 Bft) 96,66 %
05.02.2021 01:00 5,9 C 5,0 C 3,7 C 94 % 1012,5 hPa 0,0 l/m 0,00 h 0,00 h 0 W/m 0,0 km/h (0 Bft) 96,88 %
05.02.2021 02:00 5,9 C 5,2 C 3,9 C 95 % 1011,9 hPa 0,0 l/m 0,00 h 0,00 h 0 W/m 0,0 km/h (0 Bft) 99,07 %
05.02.2021 03:00 5,9 C 5,5 C 3,9 C 95 % 1011,4 hPa 0,0 l/m 0,00 h 0,00 h 0 W/m 0,0 km/h (0 Bft) 97,51 %
05.02.2021 04:00 6,4 C 6,3 C 4,5 C 94 % 1011,2 hPa 0,0 l/m 0,00 h 0,00 h 0 W/m 0,2 km/h (0 Bft) 97,23 %
05.02.2021 05:00 6,8 C 6,1 C 4,5 C 91 % 1011,0 hPa 0,0 l/m 0,00 h 0,00 h 0 W/m 0,0 km/h (0 Bft) 99,36 %
05.02.2021 06:00 6,7 C 6,1 C 4,5 C 90 % 1011,1 hPa 0,0 l/m 0,00 h 0,07 h 0 W/m 0,2 km/h (0 Bft) 95,18 %
05.02.2021 07:00 6,5 C 5,1 C 4,0 C 91 % 1011,1 hPa 0,0 l/m 0,00 h 0,17 h 0 W/m 0,0 km/h (0 Bft) 97,69 %
05.02.2021 08:00 6,4 C 5,8 C 4,3 C 92 % 1011,5 hPa 0,0 l/m 0,00 h 0,03 h 15 W/m 0,3 km/h (0 Bft) 96,01 %
05.02.2021 09:00 6,5 C 6,3 C 5,2 C 92 % 1011,8 hPa 0,0 l/m 0,00 h 0,00 h 41 W/m 0,2 km/h (0 Bft) 94,12 %
05.02.2021 10:00 6,9 C 6,7 C 5,6 C 92 % 1012,2 hPa 0,0 l/m 0,00 h 0,00 h 43 W/m 0,2 km/h (0 Bft) 98,71 %
05.02.2021 11:00 7,4 C 7,3 C 6,2 C 92 % 1012,3 hPa 0,0 l/m 0,00 h 0,00 h 71 W/m 0,2 km/h (0 Bft) 97,29 %
05.02.2021 12:00 8,5 C 10,5 C 9,5 C 91 % 1012,0 hPa 0,0 l/m 0,33 h 0,00 h 203 W/m 0,2 km/h (0 Bft) 98,45 %
05.02.2021 13:00 10,5 C 13,5 C 13,1 C 87 % 1011,9 hPa 0,0 l/m 0,83 h 0,00 h 299 W/m 0,2 km/h (0 Bft) 96,80 %
05.02.2021 14:00 11,0 C 10,5 C 8,8 C 87 % 1011,9 hPa 0,0 l/m 0,00 h 0,00 h 82 W/m 0,1 km/h (0 Bft) 96,30 %
05.02.2021 15:00 11,2 C 12,8 C 11,2 C 86 % 1011,7 hPa 0,0 l/m 0,63 h 0,00 h 183 W/m 0,4 km/h (0 Bft) 97,49 %
05.02.2021 16:00 11,6 C 11,4 C 9,1 C 83 % 1011,8 hPa 0,0 l/m 0,33 h 0,00 h 66 W/m 1,4 km/h (1 Bft) 97,88 %
05.02.2021 17:00 10,3 C 8,1 C 5,1 C 85 % 1011,7 hPa 0,0 l/m 0,00 h 0,00 h 11 W/m 0,0 km/h (0 Bft) 97,65 %
05.02.2021 18:00 8,3 C 6,1 C 3,2 C 88 % 1012,0 hPa 0,0 l/m 0,00 h 0,00 h 0 W/m 0,0 km/h (0 Bft) 94,81 %
05.02.2021 19:00 7,3 C 6,3 C 3,7 C 91 % 1012,2 hPa 0,0 l/m 0,00 h 0,00 h 0 W/m 0,0 km/h (0 Bft) 95,50 %
05.02.2021 20:00 7,0 C 5,7 C 3,5 C 92 % 1012,1 hPa 0,0 l/m 0,00 h 0,00 h 0 W/m 0,0 km/h (0 Bft) 97,22 %
05.02.2021 21:00 6,4 C 5,4 C 3,3 C 93 % 1011,9 hPa 0,0 l/m 0,00 h 0,00 h 0 W/m 0,0 km/h (0 Bft) 99,43 %
05.02.2021 22:00 6,4 C 6,0 C 3,9 C 94 % 1011,7 hPa 0,0 l/m 0,00 h 0,00 h 0 W/m 0,0 km/h (0 Bft) 95,31 %
05.02.2021 23:00 6,5 C 5,8 C 3,9 C 95 % 1011,5 hPa 0,0 l/m 0,00 h 0,00 h 0 W/m 0,0 km/h (0 Bft) 99,15 %
06.02.2021 00:00 6,4 C 5,7 C 3,8 C 95 % 1011,6 hPa 0,0 l/m 0,00 h 0,00 h 0 W/m 0,0 km/h (0 Bft) 98,86 %
06.02.2021 01:00 6,9 C 6,4 C 4,6 C 97 % 1011,2 hPa 0,0 l/m 0,00 h 0,00 h 0 W/m 0,0 km/h (0 Bft) 95,16 %
06.02.2021 02:00 6,9 C 6,1 C 4,5 C 97 % 1010,9 hPa 0,0 l/m 0,00 h 0,00 h 0 W/m 0,0 km/h (0 Bft) 95,54 %
06.02.2021 03:00 6,9 C 6,1 C 4,5 C 97 % 1010,8 hPa 0,0 l/m 0,00 h 0,00 h 0 W/m 0,0 km/h (0 Bft) 96,00 %
06.02.2021 04:00 6,7 C 5,8 C 4,5 C 97 % 1010,7 hPa 0,0 l/m 0,00 h 0,00 h 0 W/m 0,0 km/h (0 Bft) 97,64 %
06.02.2021 05:00 6,5 C 5,7 C 4,5 C 97 % 1010,6 hPa 0,0 l/m 0,00 h 0,07 h 0 W/m 0,0 km/h (0 Bft) 98,58 %
06.02.2021 06:00 6,4 C 5,6 C 4,1 C 98 % 1010,4 hPa 0,2 l/m 0,00 h 0,17 h 0 W/m 0,0 km/h (0 Bft) 98,77 %
06.02.2021 07:00 6,3 C 5,6 C 3,9 C 98 % 1010,3 hPa 0,2 l/m 0,00 h 0,30 h 0 W/m 0,1 km/h (0 Bft) 97,59 %
06.02.2021 08:00 6,1 C 5,3 C 3,9 C 98 % 1010,3 hPa 0,0 l/m 0,00 h 0,10 h 11 W/m 0,2 km/h (0 Bft) 98,08 %
06.02.2021 09:00 6,0 C 5,2 C 4,1 C 98 % 1010,3 hPa 0,0 l/m 0,00 h 0,20 h 31 W/m 0,0 km/h (0 Bft) 98,36 %
06.02.2021 10:00 6,1 C 5,6 C 4,8 C 99 % 1009,9 hPa 0,2 l/m 0,00 h 0,97 h 64 W/m 0,3 km/h (0 Bft) 95,19 %
06.02.2021 11:00 6,3 C 5,6 C 5,0 C 99 % 1009,7 hPa 0,2 l/m 0,00 h 0,63 h 71 W/m 0,1 km/h (0 Bft) 95,44 %
06.02.2021 12:00 6,0 C 5,2 C 4,7 C 99 % 1009,2 hPa 0,2 l/m 0,00 h 0,63 h 86 W/m 0,0 km/h (0 Bft) 96,91 %
06.02.2021 13:00 5,6 C 5,0 C 4,3 C 98 % 1008,5 hPa 0,2 l/m 0,00 h 0,50 h 125 W/m 0,4 km/h (0 Bft) 97,12 %
06.02.2021 14:00 5,2 C 4,3 C 3,7 C 98 % 1007,9 hPa 0,0 l/m 0,00 h 0,70 h 82 W/m 0,2 km/h (0 Bft) 98,22 %
06.02.2021 15:00 4,6 C 3,6 C 2,9 C 97 % 1007,3 hPa 0,2 l/m 0,00 h 0,83 h 41 W/m 0,5 km/h (0 Bft) 99,15 %
06.02.2021 16:00 4,0 C 3,0 C 2,2 C 97 % 1006,6 hPa 0,0 l/m 0,00 h 0,10 h 20 W/m 1,2 km/h (1 Bft) 94,16 %
06.02.2021 17:00 3,3 C 2,3 C 1,5 C 96 % 1005,9 hPa 0,0 l/m 0,00 h 0,00 h 5 W/m 0,4 km/h (0 Bft) 96,74 %
06.02.2021 18:00 2,7 C 1,8 C 1,0 C 96 % 1005,2 hPa 0,2 l/m 0,00 h 0,00 h 0 W/m 0,4 km/h (0 Bft) 98,77 %
06.02.2021 19:00 2,2 C 1,3 C 0,3 C 95 % 1004,9 hPa 0,0 l/m 0,00 h 0,00 h 0 W/m 0,7 km/h (0 Bft) 95,54 %
06.02.2021 20:00 1,4 C 0,3 C -0,8 C 95 % 1004,2 hPa 0,0 l/m 0,00 h 0,83 h 0 W/m 0,4 km/h (0 Bft) 99,01 %
06.02.2021 21:00 0,6 C -0,5 C -1,5 C 96 % 1004,2 hPa 0,0 l/m 0,00 h 0,20 h 0 W/m 0,2 km/h (0 Bft) 96,87 %
06.02.2021 22:00 0,3 C -0,6 C -1,6 C 97 % 1003,0 hPa 0,0 l/m 0,00 h 0,67 h 0 W/m 0,6 km/h (0 Bft) 93,38 %
06.02.2021 23:00 0,1 C -0,6 C -1,6 C 97 % 1002,3 hPa 0,4 l/m 0,00 h 1,00 h 0 W/m 0,4 km/h (0 Bft) 94,98 %
07.02.2021 00:00 0,0 C -0,6 C -1,6 C 98 % 1001,4 hPa 1,2 l/m 0,00 h 0,77 h 0 W/m 1,5 km/h (1 Bft) 95,67 %
07.02.2021 01:00 -0,0 C -0,6 C -1,6 C 98 % 1001,1 hPa 0,4 l/m 0,00 h 0,63 h 0 W/m 0,3 km/h (0 Bft) 97,79 %
07.02.2021 02:00 -0,3 C -1,1 C -1,6 C 98 % 999,7 hPa 0,0 l/m 0,00 h 0,70 h 0 W/m 0,7 km/h (0 Bft) 95,86 %
07.02.2021 03:00 -0,4 C -1,1 C -1,6 C 98 % 999,0 hPa 0,0 l/m 0,00 h 0,40 h 0 W/m 0,3 km/h (0 Bft) 98,09 %
07.02.2021 04:00 -0,5 C -1,1 C -1,6 C 98 % 998,4 hPa 0,2 l/m 0,00 h 0,27 h 0 W/m 0,9 km/h (0 Bft) 95,55 %
07.02.2021 05:00 -0,7 C -1,4 C -1,8 C 98 % 998,0 hPa 0,0 l/m 0,00 h 0,07 h 0 W/m 0,2 km/h (0 Bft) 98,19 %
07.02.2021 06:00 -1,1 C -1,7 C -2,2 C 98 % 997,5 hPa 0,0 l/m 0,00 h 0,00 h 0 W/m 0,3 km/h (0 Bft) 97,97 %
07.02.2021 07:00 -1,5 C -2,2 C -2,6 C 98 % 997,3 hPa 0,0 l/m 0,00 h 0,00 h 0 W/m 0,9 km/h (0 Bft) 92,95 %
07.02.2021 08:00 -1,9 C -2,4 C -2,8 C 97 % 997,4 hPa 0,0 l/m 0,00 h 0,00 h 5 W/m 0,9 km/h (0 Bft) 96,89 %
07.02.2021 09:00 -2,2 C -2,8 C -3,3 C 97 % 997,6 hPa 0,0 l/m 0,00 h 0,00 h 8 W/m 0,4 km/h (0 Bft) 96,79 %
07.02.2021 10:00 -2,5 C -2,9 C -3,3 C 97 % 997,7 hPa 0,0 l/m 0,00 h 0,00 h 15 W/m 0,9 km/h (0 Bft) 95,65 %
07.02.2021 11:00 -2,8 C -3,3 C -3,7 C 96 % 997,9 hPa 0,0 l/m 0,00 h 0,00 h 19 W/m 0,5 km/h (0 Bft) 99,57 %
07.02.2021 12:00 -2,8 C -2,8 C -3,4 C 96 % 998,0 hPa 0,0 l/m 0,00 h 0,00 h 38 W/m 0,9 km/h (0 Bft) 98,29 %
07.02.2021 13:00 -2,6 C -2,7 C -3,2 C 95 % 997,9 hPa 0,0 l/m 0,00 h 0,00 h 33 W/m 0,1 km/h (0 Bft) 96,80 %
07.02.2021 14:00 -2,6 C -3,0 C -3,8 C 95 % 997,9 hPa 0,0 l/m 0,00 h 0,00 h 17 W/m 0,2 km/h (0 Bft) 99,58 %
07.02.2021 15:00 -2,9 C -3,3 C -4,0 C 94 % 998,2 hPa 0,0 l/m 0,00 h 0,00 h 10 W/m 0,6 km/h (0 Bft) 97,86 %
07.02.2021 16:00 -3,1 C -3,7 C -4,4 C 94 % 998,6 hPa 0,0 l/m 0,00 h 0,00 h 5 W/m 0,0 km/h (0 Bft) 93,51 %
07.02.2021 17:00 -3,4 C -3,9 C -4,9 C 95 % 998,8 hPa 0,0 l/m 0,00 h 0,00 h 0 W/m 0,2 km/h (0 Bft) 97,24 %
07.02.2021 18:00 -3,6 C -3,9 C -5,0 C 95 % 999,1 hPa 0,0 l/m 0,00 h 0,00 h 0 W/m 0,3 km/h (0 Bft) 96,71 %
07.02.2021 19:00 -3,7 C -3,9 C -5,0 C 95 % 999,3 hPa 0,0 l/m 0,00 h 0,00 h 0 W/m 0,1 km/h (0 Bft) 95,90 %
07.02.2021 20:00 -3,7 C -4,1 C -5,0 C 94 % 999,6 hPa 0,0 l/m 0,00 h 0,00 h 0 W/m 0,3 km/h (0 Bft) 96,76 %
07.02.2021 21:00 -3,9 C -4,4 C -5,3 C 94 % 999,7 hPa 0,0 l/m 0,00 h 0,00 h 0 W/m 0,2 km/h (0 Bft) 99,15 %
07.02.2021 22:00 -4,1 C -4,4 C -5,5 C 94 % 1000,0 hPa 0,0 l/m 0,00 h 0,00 h 0 W/m 0,6 km/h (0 Bft) 97,08 %
07.02.2021 23:00 -4,1 C -4,4 C -5,5 C 94 % 1000,0 hPa 0,0 l/m 0,00 h 0,00 h 0 W/m 0,3 km/h (0 Bft) 96,72 %
Min-Datum _ 07.02.21 07.02.21 07.02.21 04.02.21 01.02.21 - - - - 01.02.21 07.02.21
_ Min-Zeit 23:30 20:06 21:06 15:22 05:54 - - - - 00:00 07:46
Minimum _ -4,2 C -4,4 C -5,5 C 76 % 990,9 hPa - - - - 0,0 km/h (0 Bft) 46,34 %
Max-Datum _ 03.02.21 05.02.21 04.02.21 02.02.21 04.02.21 03.02.21 04.02.21 01.02.21 04.02.21 03.02.21 01.02.21
_ Max-Zeit 16:32 13:18 12:32 12:18 11:22 00:22 12:08 00:08 12:34 15:46 00:44
Maximum _ 11,9 C 16,1 C 16,7 C 100 % 1014,8 hPa 4,2 l/m 0,07 h 0,07 h 526 W/m 32,2 km/h
S-SO (5 Bft)
100,00 %
Durchschnitt _ 5,1 C 4,6 C 3,6 C 95 % 1003,4 hPa #30,2 l/m #4:58 h #29:08 h 60 W/m 0,5 km/h (0 Bft) 97,12 %
© 2021 W. Hausmann